Lund Lth, Sweden

5:53 PM CEST on August 27, 2014 (GMT +0200)
N%uFFFDbbel%uFFFDv | Change Station
CLOSE
Current Station
Personal Weather Station
Location: Sk�ne L�n, SK�NE L�N
Elevation: 115 ft
Nearby Weather Stations

Elev 115 ft 55.73 °N, 13.17 °E | Updated 40 seconds ago

Clear
Clear
66.6 °F
Feels Like 66.6 °F
N
6.0
Wind Variable Wind from North
Gusts 13.0 mph

Today
High -- | Low -- °F
--% Chance of Precip.
Yesterday
High -- | Low -- °F
Precip. -- in
6:01 AM 8:14 PM
Waxing Crescent, 4% visible
Pressure 29.92 in
Visibility -9999.0 miles
Clouds
Dew Point 48 °F
Humidity 51%
Rainfall 0.00 in
Snow Depth Not available.
UV Not available.
Pollen Not available.
Air Quality Not available.
Flu Activity Not available.
METAR ESMS 271550Z 31014KT CAVOK 19/07 Q1013

More Conditions Fewer Conditions

Pressure 29.92 in
Visibility -9999.0 miles
Clouds
Dew Point 48 °F
Humidity 51%
Rainfall 0.00 in
Snow Depth Not available.
UV Not available.
Pollen Not available.
Air Quality Not available.
Flu Activity Not available.
METAR ESMS 271550Z 31014KT CAVOK 19/07 Q1013

More Conditions Fewer Conditions

10-Day Weather Forecast

Almanac

Astronomy

Aug. 27, 2014 Rise Set
Actual Time 6:01 AM CEST 8:14 PM CEST
Civil Twilight 5:21 AM CEST 8:54 PM CEST
Nautical Twilight 4:30 AM CEST 9:44 PM CEST
Astronomical Twilight 3:28 AM CEST 10:45 PM CEST
Moon 8:07 AM CEST 8:27 PM CEST
Length of Visible Light 15h 32m
Length of Day
14h 12m
Tomorrow will be 4m 27s shorter.
Waxing Crescent, 4% of the Moon is Illuminated
Today
Waxing Crescent
Sep 2
First Quarter
Sep 8
Full
Sep 15
Last Quarter
Sep 24
New

Today's Extremes

Country Highs Country Lows

Community

WunderPhotos

Upload Photos

1,747,711 photos uploaded!

Nearby

Snow Depth

Not available.

Earthquake Activity

City Distance Mag. Time & Date
No recent earthquake activity has been reported nearby.
Minimum magnitude displayed is 2.5.

Coastal Water Temperatures

Place Temperature
No Stations Reporting

Nearby Weather Stations